sensor_id;sensor_type;location;lat;lon;timestamp;pressure;altitude;pressure_sealevel;temperature
44429;BMP180;30134;47.866;-4.222;2022-07-03T00:02:01;102254.00;;;24.80
44429;BMP180;30134;47.866;-4.222;2022-07-03T00:04:27;102257.00;;;24.80
44429;BMP180;30134;47.866;-4.222;2022-07-03T00:06:54;102248.00;;;24.70
44429;BMP180;30134;47.866;-4.222;2022-07-03T00:09:20;102249.00;;;24.80
44429;BMP180;30134;47.866;-4.222;2022-07-03T00:11:46;102246.00;;;24.70
44429;BMP180;30134;47.866;-4.222;2022-07-03T00:14:12;102247.00;;;24.80
44429;BMP180;30134;47.866;-4.222;2022-07-03T00:16:38;102247.00;;;24.80
44429;BMP180;30134;47.866;-4.222;2022-07-03T00:19:04;102246.00;;;24.80
44429;BMP180;30134;47.866;-4.222;2022-07-03T00:21:56;102239.00;;;24.70
44429;BMP180;30134;47.866;-4.222;2022-07-03T00:25:00;102245.00;;;24.80
44429;BMP180;30134;47.866;-4.222;2022-07-03T00:27:29;102245.00;;;24.80
44429;BMP180;30134;47.866;-4.222;2022-07-03T00:30:00;102240.00;;;24.70
44429;BMP180;30134;47.866;-4.222;2022-07-03T00:32:27;102241.00;;;24.70
44429;BMP180;30134;47.866;-4.222;2022-07-03T00:34:55;102244.00;;;24.60
44429;BMP180;30134;47.866;-4.222;2022-07-03T00:37:23;102249.00;;;24.80
44429;BMP180;30134;47.866;-4.222;2022-07-03T00:39:50;102248.00;;;24.80
44429;BMP180;30134;47.866;-4.222;2022-07-03T00:42:17;102243.00;;;24.70
44429;BMP180;30134;47.866;-4.222;2022-07-03T00:44:49;102239.00;;;24.70
44429;BMP180;30134;47.866;-4.222;2022-07-03T00:47:18;102249.00;;;24.80
44429;BMP180;30134;47.866;-4.222;2022-07-03T00:49:49;102247.00;;;24.80
44429;BMP180;30134;47.866;-4.222;2022-07-03T00:52:17;102243.00;;;24.70
44429;BMP180;30134;47.866;-4.222;2022-07-03T00:54:56;102246.00;;;24.70
44429;BMP180;30134;47.866;-4.222;2022-07-03T00:57:25;102248.00;;;24.70
44429;BMP180;30134;47.866;-4.222;2022-07-03T00:59:53;102244.00;;;24.60
44429;BMP180;30134;47.866;-4.222;2022-07-03T01:16:30;102233.00;;;24.70
44429;BMP180;30134;47.866;-4.222;2022-07-03T01:19:18;102237.00;;;24.80
44429;BMP180;30134;47.866;-4.222;2022-07-03T01:30:34;102244.00;;;24.60
44429;BMP180;30134;47.866;-4.222;2022-07-03T01:33:09;102241.00;;;24.70
44429;BMP180;30134;47.866;-4.222;2022-07-03T01:35:41;102246.00;;;24.60
44429;BMP180;30134;47.866;-4.222;2022-07-03T01:38:13;102248.00;;;24.70
44429;BMP180;30134;47.866;-4.222;2022-07-03T01:40:42;102237.00;;;24.50
44429;BMP180;30134;47.866;-4.222;2022-07-03T01:43:12;102237.00;;;24.70
44429;BMP180;30134;47.866;-4.222;2022-07-03T01:45:48;102238.00;;;24.70
44429;BMP180;30134;47.866;-4.222;2022-07-03T01:48:15;102238.00;;;24.70
44429;BMP180;30134;47.866;-4.222;2022-07-03T01:50:42;102242.00;;;24.60
44429;BMP180;30134;47.866;-4.222;2022-07-03T01:53:11;102238.00;;;24.70
44429;BMP180;30134;47.866;-4.222;2022-07-03T01:55:41;102236.00;;;24.70
44429;BMP180;30134;47.866;-4.222;2022-07-03T01:58:08;102246.00;;;24.80
44429;BMP180;30134;47.866;-4.222;2022-07-03T02:03:27;102238.00;;;24.70
44429;BMP180;30134;47.866;-4.222;2022-07-03T02:06:12;102230.00;;;24.70
44429;BMP180;30134;47.866;-4.222;2022-07-03T02:09:04;102241.00;;;24.70
44429;BMP180;30134;47.866;-4.222;2022-07-03T02:11:35;102236.00;;;24.70
44429;BMP180;30134;47.866;-4.222;2022-07-03T02:14:14;102235.00;;;24.80
44429;BMP180;30134;47.866;-4.222;2022-07-03T02:22:33;102229.00;;;24.70
44429;BMP180;30134;47.866;-4.222;2022-07-03T02:27:47;102226.00;;;24.70
44429;BMP180;30134;47.866;-4.222;2022-07-03T02:30:17;102219.00;;;24.70
44429;BMP180;30134;47.866;-4.222;2022-07-03T02:32:49;102218.00;;;24.80
44429;BMP180;30134;47.866;-4.222;2022-07-03T02:35:26;102221.00;;;24.60
44429;BMP180;30134;47.866;-4.222;2022-07-03T02:38:10;102226.00;;;24.80
44429;BMP180;30134;47.866;-4.222;2022-07-03T02:40:39;102219.00;;;24.50
44429;BMP180;30134;47.866;-4.222;2022-07-03T02:55:32;102220.00;;;24.60
44429;BMP180;30134;47.866;-4.222;2022-07-03T03:01:08;102214.00;;;24.60
44429;BMP180;30134;47.866;-4.222;2022-07-03T03:03:36;102210.00;;;24.60
44429;BMP180;30134;47.866;-4.222;2022-07-03T03:06:11;102214.00;;;24.80
44429;BMP180;30134;47.866;-4.222;2022-07-03T03:08:50;102212.00;;;24.60
44429;BMP180;30134;47.866;-4.222;2022-07-03T03:11:44;102210.00;;;24.60
44429;BMP180;30134;47.866;-4.222;2022-07-03T03:14:19;102206.00;;;24.60
44429;BMP180;30134;47.866;-4.222;2022-07-03T03:16:51;102197.00;;;24.60
44429;BMP180;30134;47.866;-4.222;2022-07-03T03:19:22;102207.00;;;24.70
44429;BMP180;30134;47.866;-4.222;2022-07-03T03:24:41;102205.00;;;24.60
44429;BMP180;30134;47.866;-4.222;2022-07-03T03:27:09;102209.00;;;24.60
44429;BMP180;30134;47.866;-4.222;2022-07-03T03:29:36;102208.00;;;24.60
44429;BMP180;30134;47.866;-4.222;2022-07-03T03:32:04;102211.00;;;24.60
44429;BMP180;30134;47.866;-4.222;2022-07-03T03:34:31;102211.00;;;24.60
44429;BMP180;30134;47.866;-4.222;2022-07-03T03:36:58;102213.00;;;24.70
44429;BMP180;30134;47.866;-4.222;2022-07-03T03:39:25;102210.00;;;24.60
44429;BMP180;30134;47.866;-4.222;2022-07-03T03:41:52;102218.00;;;24.60
44429;BMP180;30134;47.866;-4.222;2022-07-03T03:44:18;102217.00;;;24.50
44429;BMP180;30134;47.866;-4.222;2022-07-03T03:46:44;102215.00;;;24.60
44429;BMP180;30134;47.866;-4.222;2022-07-03T03:49:10;102224.00;;;24.70
44429;BMP180;30134;47.866;-4.222;2022-07-03T03:51:37;102225.00;;;24.60
44429;BMP180;30134;47.866;-4.222;2022-07-03T03:54:04;102223.00;;;24.60
44429;BMP180;30134;47.866;-4.222;2022-07-03T03:56:30;102226.00;;;24.70
44429;BMP180;30134;47.866;-4.222;2022-07-03T03:58:56;102230.00;;;24.60
44429;BMP180;30134;47.866;-4.222;2022-07-03T04:01:22;102228.00;;;24.60
44429;BMP180;30134;47.866;-4.222;2022-07-03T04:03:48;102236.00;;;24.70
44429;BMP180;30134;47.866;-4.222;2022-07-03T04:06:14;102232.00;;;24.60
44429;BMP180;30134;47.866;-4.222;2022-07-03T04:08:40;102230.00;;;24.60
44429;BMP180;30134;47.866;-4.222;2022-07-03T04:11:06;102231.00;;;24.70
44429;BMP180;30134;47.866;-4.222;2022-07-03T04:13:32;102226.00;;;24.60
44429;BMP180;30134;47.866;-4.222;2022-07-03T04:15:58;102229.00;;;24.60
44429;BMP180;30134;47.866;-4.222;2022-07-03T04:18:24;102228.00;;;24.60
44429;BMP180;30134;47.866;-4.222;2022-07-03T04:20:50;102232.00;;;24.60
44429;BMP180;30134;47.866;-4.222;2022-07-03T04:23:16;102233.00;;;24.60
44429;BMP180;30134;47.866;-4.222;2022-07-03T04:25:42;102238.00;;;24.60
44429;BMP180;30134;47.866;-4.222;2022-07-03T04:28:08;102235.00;;;24.70
44429;BMP180;30134;47.866;-4.222;2022-07-03T04:30:35;102232.00;;;24.50
44429;BMP180;30134;47.866;-4.222;2022-07-03T04:33:01;102235.00;;;24.50
44429;BMP180;30134;47.866;-4.222;2022-07-03T04:35:27;102240.00;;;24.70
44429;BMP180;30134;47.866;-4.222;2022-07-03T04:37:53;102233.00;;;24.60
44429;BMP180;30134;47.866;-4.222;2022-07-03T04:40:21;102233.00;;;24.60
44429;BMP180;30134;47.866;-4.222;2022-07-03T04:42:47;102231.00;;;24.50
44429;BMP180;30134;47.866;-4.222;2022-07-03T04:45:14;102234.00;;;24.60
44429;BMP180;30134;47.866;-4.222;2022-07-03T04:47:40;102229.00;;;24.60
44429;BMP180;30134;47.866;-4.222;2022-07-03T04:50:06;102236.00;;;24.70
44429;BMP180;30134;47.866;-4.222;2022-07-03T04:52:32;102231.00;;;24.60
44429;BMP180;30134;47.866;-4.222;2022-07-03T04:54:58;102233.00;;;24.70
44429;BMP180;30134;47.866;-4.222;2022-07-03T04:57:24;102232.00;;;24.70
44429;BMP180;30134;47.866;-4.222;2022-07-03T04:59:50;102229.00;;;24.70
44429;BMP180;30134;47.866;-4.222;2022-07-03T05:02:16;102221.00;;;24.70
44429;BMP180;30134;47.866;-4.222;2022-07-03T05:04:42;102230.00;;;24.60
44429;BMP180;30134;47.866;-4.222;2022-07-03T05:07:08;102236.00;;;24.60
44429;BMP180;30134;47.866;-4.222;2022-07-03T05:09:34;102235.00;;;24.50
44429;BMP180;30134;47.866;-4.222;2022-07-03T05:12:00;102233.00;;;24.50
44429;BMP180;30134;47.866;-4.222;2022-07-03T05:14:27;102244.00;;;24.60
44429;BMP180;30134;47.866;-4.222;2022-07-03T05:16:53;102241.00;;;24.60
44429;BMP180;30134;47.866;-4.222;2022-07-03T05:19:19;102247.00;;;24.50
44429;BMP180;30134;47.866;-4.222;2022-07-03T05:21:45;102250.00;;;24.50
44429;BMP180;30134;47.866;-4.222;2022-07-03T05:24:11;102255.00;;;24.50
44429;BMP180;30134;47.866;-4.222;2022-07-03T05:26:37;102248.00;;;24.60
44429;BMP180;30134;47.866;-4.222;2022-07-03T05:29:03;102255.00;;;24.60
44429;BMP180;30134;47.866;-4.222;2022-07-03T05:31:29;102254.00;;;24.50
44429;BMP180;30134;47.866;-4.222;2022-07-03T05:33:55;102253.00;;;24.60
44429;BMP180;30134;47.866;-4.222;2022-07-03T05:36:20;102254.00;;;24.50
44429;BMP180;30134;47.866;-4.222;2022-07-03T05:38:47;102257.00;;;24.60
44429;BMP180;30134;47.866;-4.222;2022-07-03T05:41:31;102255.00;;;24.50
44429;BMP180;30134;47.866;-4.222;2022-07-03T05:43:57;102255.00;;;24.60
44429;BMP180;30134;47.866;-4.222;2022-07-03T05:46:23;102260.00;;;24.60
44429;BMP180;30134;47.866;-4.222;2022-07-03T05:48:49;102257.00;;;24.60
44429;BMP180;30134;47.866;-4.222;2022-07-03T05:51:15;102262.00;;;24.60
44429;BMP180;30134;47.866;-4.222;2022-07-03T05:53:41;102263.00;;;24.50
44429;BMP180;30134;47.866;-4.222;2022-07-03T05:56:08;102262.00;;;24.60
44429;BMP180;30134;47.866;-4.222;2022-07-03T05:58:33;102261.00;;;24.60
44429;BMP180;30134;47.866;-4.222;2022-07-03T06:00:59;102260.00;;;24.50
44429;BMP180;30134;47.866;-4.222;2022-07-03T06:03:25;102262.00;;;24.50
44429;BMP180;30134;47.866;-4.222;2022-07-03T06:05:51;102261.00;;;24.40
44429;BMP180;30134;47.866;-4.222;2022-07-03T06:08:17;102263.00;;;24.50
44429;BMP180;30134;47.866;-4.222;2022-07-03T06:10:43;102270.00;;;24.50
44429;BMP180;30134;47.866;-4.222;2022-07-03T06:13:09;102275.00;;;24.60
44429;BMP180;30134;47.866;-4.222;2022-07-03T06:15:35;102273.00;;;24.60
44429;BMP180;30134;47.866;-4.222;2022-07-03T06:18:01;102272.00;;;24.50
44429;BMP180;30134;47.866;-4.222;2022-07-03T06:20:27;102270.00;;;24.50
44429;BMP180;30134;47.866;-4.222;2022-07-03T06:22:53;102278.00;;;24.60
44429;BMP180;30134;47.866;-4.222;2022-07-03T06:25:19;102277.00;;;24.50
44429;BMP180;30134;47.866;-4.222;2022-07-03T06:27:45;102276.00;;;24.50
44429;BMP180;30134;47.866;-4.222;2022-07-03T06:30:11;102275.00;;;24.50
44429;BMP180;30134;47.866;-4.222;2022-07-03T06:32:37;102281.00;;;24.60
44429;BMP180;30134;47.866;-4.222;2022-07-03T06:35:05;102287.00;;;24.60
44429;BMP180;30134;47.866;-4.222;2022-07-03T06:37:31;102276.00;;;24.60
44429;BMP180;30134;47.866;-4.222;2022-07-03T06:39:57;102279.00;;;24.50
44429;BMP180;30134;47.866;-4.222;2022-07-03T06:42:23;102280.00;;;24.50
44429;BMP180;30134;47.866;-4.222;2022-07-03T06:44:49;102283.00;;;24.60
44429;BMP180;30134;47.866;-4.222;2022-07-03T06:47:14;102292.00;;;24.60
44429;BMP180;30134;47.866;-4.222;2022-07-03T06:49:41;102282.00;;;24.60
44429;BMP180;30134;47.866;-4.222;2022-07-03T06:52:09;102284.00;;;24.50
44429;BMP180;30134;47.866;-4.222;2022-07-03T06:54:35;102290.00;;;24.40
44429;BMP180;30134;47.866;-4.222;2022-07-03T06:57:05;102288.00;;;24.50
44429;BMP180;30134;47.866;-4.222;2022-07-03T06:59:31;102296.00;;;24.50
44429;BMP180;30134;47.866;-4.222;2022-07-03T07:01:57;102295.00;;;24.50
44429;BMP180;30134;47.866;-4.222;2022-07-03T07:04:22;102294.00;;;24.50
44429;BMP180;30134;47.866;-4.222;2022-07-03T07:06:48;102295.00;;;24.60
44429;BMP180;30134;47.866;-4.222;2022-07-03T07:09:15;102297.00;;;24.50
44429;BMP180;30134;47.866;-4.222;2022-07-03T07:11:41;102300.00;;;24.50
44429;BMP180;30134;47.866;-4.222;2022-07-03T07:14:07;102304.00;;;24.60
44429;BMP180;30134;47.866;-4.222;2022-07-03T07:16:33;102298.00;;;24.60
44429;BMP180;30134;47.866;-4.222;2022-07-03T07:18:59;102300.00;;;24.60
44429;BMP180;30134;47.866;-4.222;2022-07-03T07:21:25;102305.00;;;24.50
44429;BMP180;30134;47.866;-4.222;2022-07-03T07:23:50;102296.00;;;24.50
44429;BMP180;30134;47.866;-4.222;2022-07-03T07:26:16;102301.00;;;24.60
44429;BMP180;30134;47.866;-4.222;2022-07-03T07:28:44;102297.00;;;24.50
44429;BMP180;30134;47.866;-4.222;2022-07-03T07:31:09;102289.00;;;24.50
44429;BMP180;30134;47.866;-4.222;2022-07-03T07:33:35;102287.00;;;24.40
44429;BMP180;30134;47.866;-4.222;2022-07-03T07:36:01;102297.00;;;24.60
44429;BMP180;30134;47.866;-4.222;2022-07-03T07:38:27;102296.00;;;24.60
44429;BMP180;30134;47.866;-4.222;2022-07-03T07:40:53;102292.00;;;24.60
44429;BMP180;30134;47.866;-4.222;2022-07-03T07:43:19;102293.00;;;24.60
44429;BMP180;30134;47.866;-4.222;2022-07-03T07:45:47;102291.00;;;24.60
44429;BMP180;30134;47.866;-4.222;2022-07-03T07:48:13;102300.00;;;24.50
44429;BMP180;30134;47.866;-4.222;2022-07-03T07:50:39;102305.00;;;24.60
44429;BMP180;30134;47.866;-4.222;2022-07-03T07:53:05;102300.00;;;24.60
44429;BMP180;30134;47.866;-4.222;2022-07-03T07:55:31;102307.00;;;24.40
44429;BMP180;30134;47.866;-4.222;2022-07-03T07:57:57;102311.00;;;24.60
44429;BMP180;30134;47.866;-4.222;2022-07-03T08:00:23;102310.00;;;24.50
44429;BMP180;30134;47.866;-4.222;2022-07-03T08:02:49;102315.00;;;24.60
44429;BMP180;30134;47.866;-4.222;2022-07-03T08:05:34;102321.00;;;24.50
44429;BMP180;30134;47.866;-4.222;2022-07-03T08:08:17;102318.00;;;24.60
44429;BMP180;30134;47.866;-4.222;2022-07-03T08:10:48;102311.00;;;24.50
44429;BMP180;30134;47.866;-4.222;2022-07-03T08:13:17;102319.00;;;24.60
44429;BMP180;30134;47.866;-4.222;2022-07-03T08:15:45;102316.00;;;24.60
44429;BMP180;30134;47.866;-4.222;2022-07-03T08:18:11;102310.00;;;24.50
44429;BMP180;30134;47.866;-4.222;2022-07-03T08:20:41;102306.00;;;24.50
44429;BMP180;30134;47.866;-4.222;2022-07-03T08:23:07;102312.00;;;24.60
44429;BMP180;30134;47.866;-4.222;2022-07-03T08:25:33;102300.00;;;24.40
44429;BMP180;30134;47.866;-4.222;2022-07-03T08:27:59;102307.00;;;24.50
44429;BMP180;30134;47.866;-4.222;2022-07-03T08:30:27;102304.00;;;24.40
44429;BMP180;30134;47.866;-4.222;2022-07-03T08:32:57;102308.00;;;24.50
44429;BMP180;30134;47.866;-4.222;2022-07-03T08:35:24;102310.00;;;24.60
44429;BMP180;30134;47.866;-4.222;2022-07-03T08:37:51;102302.00;;;24.40
44429;BMP180;30134;47.866;-4.222;2022-07-03T08:40:21;102303.00;;;24.40
44429;BMP180;30134;47.866;-4.222;2022-07-03T08:42:58;102304.00;;;24.50
44429;BMP180;30134;47.866;-4.222;2022-07-03T08:45:25;102301.00;;;24.40
44429;BMP180;30134;47.866;-4.222;2022-07-03T08:47:54;102297.00;;;24.50
44429;BMP180;30134;47.866;-4.222;2022-07-03T08:50:22;102310.00;;;24.50
44429;BMP180;30134;47.866;-4.222;2022-07-03T08:52:51;102302.00;;;24.50
44429;BMP180;30134;47.866;-4.222;2022-07-03T08:55:19;102304.00;;;24.60
44429;BMP180;30134;47.866;-4.222;2022-07-03T08:57:47;102305.00;;;24.50
44429;BMP180;30134;47.866;-4.222;2022-07-03T09:00:19;102301.00;;;24.50
44429;BMP180;30134;47.866;-4.222;2022-07-03T09:02:47;102303.00;;;24.50
44429;BMP180;30134;47.866;-4.222;2022-07-03T09:05:16;102305.00;;;24.40
44429;BMP180;30134;47.866;-4.222;2022-07-03T09:07:44;102300.00;;;24.50
44429;BMP180;30134;47.866;-4.222;2022-07-03T09:10:17;102302.00;;;24.50
44429;BMP180;30134;47.866;-4.222;2022-07-03T09:12:48;102302.00;;;24.40
44429;BMP180;30134;47.866;-4.222;2022-07-03T09:15:15;102306.00;;;24.50
44429;BMP180;30134;47.866;-4.222;2022-07-03T09:18:03;102304.00;;;24.40
44429;BMP180;30134;47.866;-4.222;2022-07-03T09:20:38;102308.00;;;24.50
44429;BMP180;30134;47.866;-4.222;2022-07-03T09:23:18;102305.00;;;24.50
44429;BMP180;30134;47.866;-4.222;2022-07-03T09:25:59;102311.00;;;24.50
44429;BMP180;30134;47.866;-4.222;2022-07-03T09:28:49;102317.00;;;24.50
44429;BMP180;30134;47.866;-4.222;2022-07-03T09:31:26;102307.00;;;24.50
44429;BMP180;30134;47.866;-4.222;2022-07-03T09:34:06;102315.00;;;24.50
44429;BMP180;30134;47.866;-4.222;2022-07-03T09:36:49;102315.00;;;24.60
44429;BMP180;30134;47.866;-4.222;2022-07-03T09:39:30;102314.00;;;23.90
44429;BMP180;30134;47.866;-4.222;2022-07-03T09:42:04;102312.00;;;23.50
44429;BMP180;30134;47.866;-4.222;2022-07-03T09:44:34;102315.00;;;23.40
44429;BMP180;30134;47.866;-4.222;2022-07-03T09:47:10;102313.00;;;23.90
44429;BMP180;30134;47.866;-4.222;2022-07-03T09:52:42;102317.00;;;24.70
44429;BMP180;30134;47.866;-4.222;2022-07-03T10:00:20;102335.00;;;24.80
44429;BMP180;30134;47.866;-4.222;2022-07-03T10:03:07;102339.00;;;24.90
44429;BMP180;30134;47.866;-4.222;2022-07-03T10:05:42;102344.00;;;25.10
44429;BMP180;30134;47.866;-4.222;2022-07-03T10:08:12;102345.00;;;25.00
44429;BMP180;30134;47.866;-4.222;2022-07-03T10:10:41;102342.00;;;25.20
44429;BMP180;30134;47.866;-4.222;2022-07-03T10:13:08;102347.00;;;25.10
44429;BMP180;30134;47.866;-4.222;2022-07-03T10:15:36;102334.00;;;25.20
44429;BMP180;30134;47.866;-4.222;2022-07-03T10:18:06;102347.00;;;25.20
44429;BMP180;30134;47.866;-4.222;2022-07-03T10:20:39;102348.00;;;25.30
44429;BMP180;30134;47.866;-4.222;2022-07-03T10:23:07;102342.00;;;25.30
44429;BMP180;30134;47.866;-4.222;2022-07-03T10:25:33;102341.00;;;25.40
44429;BMP180;30134;47.866;-4.222;2022-07-03T10:28:01;102345.00;;;25.20
44429;BMP180;30134;47.866;-4.222;2022-07-03T10:30:28;102353.00;;;25.50
44429;BMP180;30134;47.866;-4.222;2022-07-03T10:32:55;102349.00;;;25.40
44429;BMP180;30134;47.866;-4.222;2022-07-03T10:35:32;102344.00;;;25.40
44429;BMP180;30134;47.866;-4.222;2022-07-03T10:43:22;102338.00;;;25.40
44429;BMP180;30134;47.866;-4.222;2022-07-03T10:46:10;102343.00;;;25.60
44429;BMP180;30134;47.866;-4.222;2022-07-03T10:51:50;102342.00;;;25.70
44429;BMP180;30134;47.866;-4.222;2022-07-03T10:54:48;102339.00;;;25.40
44429;BMP180;30134;47.866;-4.222;2022-07-03T10:57:16;102344.00;;;25.60
44429;BMP180;30134;47.866;-4.222;2022-07-03T11:07:30;102349.00;;;25.60
44429;BMP180;30134;47.866;-4.222;2022-07-03T11:13:00;102354.00;;;25.60
44429;BMP180;30134;47.866;-4.222;2022-07-03T11:18:25;102360.00;;;25.60
44429;BMP180;30134;47.866;-4.222;2022-07-03T11:25:59;102356.00;;;26.00
44429;BMP180;30134;47.866;-4.222;2022-07-03T11:31:16;102360.00;;;26.00
44429;BMP180;30134;47.866;-4.222;2022-07-03T11:33:46;102369.00;;;25.60
44429;BMP180;30134;47.866;-4.222;2022-07-03T11:38:44;102369.00;;;25.70
44429;BMP180;30134;47.866;-4.222;2022-07-03T11:41:16;102362.00;;;26.10
44429;BMP180;30134;47.866;-4.222;2022-07-03T11:43:52;102371.00;;;25.80
44429;BMP180;30134;47.866;-4.222;2022-07-03T11:46:27;102363.00;;;26.10
44429;BMP180;30134;47.866;-4.222;2022-07-03T11:49:11;102360.00;;;25.60
44429;BMP180;30134;47.866;-4.222;2022-07-03T11:51:40;102358.00;;;26.20
44429;BMP180;30134;47.866;-4.222;2022-07-03T11:54:07;102358.00;;;25.90
44429;BMP180;30134;47.866;-4.222;2022-07-03T11:56:35;102362.00;;;26.00
44429;BMP180;30134;47.866;-4.222;2022-07-03T11:59:04;102356.00;;;25.80
44429;BMP180;30134;47.866;-4.222;2022-07-03T12:01:33;102350.00;;;26.00
44429;BMP180;30134;47.866;-4.222;2022-07-03T12:04:19;102349.00;;;25.70
44429;BMP180;30134;47.866;-4.222;2022-07-03T12:06:53;102358.00;;;26.00
44429;BMP180;30134;47.866;-4.222;2022-07-03T12:12:10;102362.00;;;26.10
44429;BMP180;30134;47.866;-4.222;2022-07-03T12:14:48;102347.00;;;26.10
44429;BMP180;30134;47.866;-4.222;2022-07-03T12:19:59;102349.00;;;26.20
44429;BMP180;30134;47.866;-4.222;2022-07-03T12:22:36;102349.00;;;26.00
44429;BMP180;30134;47.866;-4.222;2022-07-03T12:25:13;102358.00;;;26.30
44429;BMP180;30134;47.866;-4.222;2022-07-03T12:27:42;102349.00;;;26.10
44429;BMP180;30134;47.866;-4.222;2022-07-03T12:30:19;102351.00;;;26.20
44429;BMP180;30134;47.866;-4.222;2022-07-03T12:32:46;102356.00;;;26.40
44429;BMP180;30134;47.866;-4.222;2022-07-03T12:35:12;102359.00;;;26.10
44429;BMP180;30134;47.866;-4.222;2022-07-03T12:37:41;102361.00;;;26.30
44429;BMP180;30134;47.866;-4.222;2022-07-03T12:40:12;102355.00;;;26.20
44429;BMP180;30134;47.866;-4.222;2022-07-03T12:42:57;102358.00;;;26.10
44429;BMP180;30134;47.866;-4.222;2022-07-03T12:45:28;102354.00;;;26.50
44429;BMP180;30134;47.866;-4.222;2022-07-03T12:48:03;102353.00;;;26.10
44429;BMP180;30134;47.866;-4.222;2022-07-03T12:53:30;102360.00;;;26.30
44429;BMP180;30134;47.866;-4.222;2022-07-03T12:56:04;102351.00;;;26.50
44429;BMP180;30134;47.866;-4.222;2022-07-03T12:58:35;102346.00;;;26.20
44429;BMP180;30134;47.866;-4.222;2022-07-03T13:01:33;102350.00;;;26.40
44429;BMP180;30134;47.866;-4.222;2022-07-03T13:04:02;102350.00;;;26.10
44429;BMP180;30134;47.866;-4.222;2022-07-03T13:06:29;102349.00;;;26.30
44429;BMP180;30134;47.866;-4.222;2022-07-03T13:09:03;102347.00;;;26.10
44429;BMP180;30134;47.866;-4.222;2022-07-03T13:11:35;102342.00;;;26.50
44429;BMP180;30134;47.866;-4.222;2022-07-03T13:14:21;102343.00;;;26.30
44429;BMP180;30134;47.866;-4.222;2022-07-03T13:16:50;102341.00;;;26.50
44429;BMP180;30134;47.866;-4.222;2022-07-03T13:19:24;102347.00;;;26.30
44429;BMP180;30134;47.866;-4.222;2022-07-03T13:21:55;102333.00;;;26.40
44429;BMP180;30134;47.866;-4.222;2022-07-03T13:24:23;102327.00;;;26.40
44429;BMP180;30134;47.866;-4.222;2022-07-03T13:26:51;102326.00;;;26.60
44429;BMP180;30134;47.866;-4.222;2022-07-03T13:29:18;102332.00;;;26.40
44429;BMP180;30134;47.866;-4.222;2022-07-03T13:31:44;102328.00;;;26.60
44429;BMP180;30134;47.866;-4.222;2022-07-03T13:34:12;102333.00;;;26.40
44429;BMP180;30134;47.866;-4.222;2022-07-03T13:36:37;102327.00;;;26.50
44429;BMP180;30134;47.866;-4.222;2022-07-03T13:39:03;102332.00;;;26.40
44429;BMP180;30134;47.866;-4.222;2022-07-03T13:41:30;102332.00;;;26.50
44429;BMP180;30134;47.866;-4.222;2022-07-03T13:43:55;102324.00;;;26.30
44429;BMP180;30134;47.866;-4.222;2022-07-03T13:46:22;102326.00;;;26.60
44429;BMP180;30134;47.866;-4.222;2022-07-03T13:48:51;102321.00;;;26.40
44429;BMP180;30134;47.866;-4.222;2022-07-03T13:51:17;102325.00;;;26.60
44429;BMP180;30134;47.866;-4.222;2022-07-03T13:53:44;102315.00;;;26.30
44429;BMP180;30134;47.866;-4.222;2022-07-03T13:56:11;102322.00;;;26.70
44429;BMP180;30134;47.866;-4.222;2022-07-03T13:58:39;102322.00;;;26.50
44429;BMP180;30134;47.866;-4.222;2022-07-03T14:01:04;102328.00;;;26.80
44429;BMP180;30134;47.866;-4.222;2022-07-03T14:03:30;102319.00;;;26.40
44429;BMP180;30134;47.866;-4.222;2022-07-03T14:05:56;102326.00;;;26.70
44429;BMP180;30134;47.866;-4.222;2022-07-03T14:08:25;102325.00;;;26.50
44429;BMP180;30134;47.866;-4.222;2022-07-03T14:10:51;102325.00;;;26.80
44429;BMP180;30134;47.866;-4.222;2022-07-03T14:13:17;102329.00;;;26.50
44429;BMP180;30134;47.866;-4.222;2022-07-03T14:15:42;102332.00;;;26.80
44429;BMP180;30134;47.866;-4.222;2022-07-03T14:18:08;102332.00;;;26.50
44429;BMP180;30134;47.866;-4.222;2022-07-03T14:20:34;102332.00;;;26.80
44429;BMP180;30134;47.866;-4.222;2022-07-03T14:23:00;102327.00;;;26.60
44429;BMP180;30134;47.866;-4.222;2022-07-03T14:25:26;102320.00;;;26.80
44429;BMP180;30134;47.866;-4.222;2022-07-03T14:27:52;102326.00;;;26.70
44429;BMP180;30134;47.866;-4.222;2022-07-03T14:30:37;102326.00;;;26.90
44429;BMP180;30134;47.866;-4.222;2022-07-03T14:33:21;102325.00;;;26.60
44429;BMP180;30134;47.866;-4.222;2022-07-03T14:35:47;102326.00;;;27.00
44429;BMP180;30134;47.866;-4.222;2022-07-03T14:38:13;102325.00;;;26.80
44429;BMP180;30134;47.866;-4.222;2022-07-03T14:40:39;102329.00;;;26.90
44429;BMP180;30134;47.866;-4.222;2022-07-03T14:43:05;102325.00;;;26.60
44429;BMP180;30134;47.866;-4.222;2022-07-03T14:45:31;102332.00;;;26.90
44429;BMP180;30134;47.866;-4.222;2022-07-03T14:47:57;102328.00;;;26.60
44429;BMP180;30134;47.866;-4.222;2022-07-03T14:50:23;102330.00;;;26.80
44429;BMP180;30134;47.866;-4.222;2022-07-03T14:52:49;102327.00;;;26.50
44429;BMP180;30134;47.866;-4.222;2022-07-03T14:55:15;102321.00;;;26.80
44429;BMP180;30134;47.866;-4.222;2022-07-03T14:57:53;102319.00;;;26.80
44429;BMP180;30134;47.866;-4.222;2022-07-03T15:00:26;102325.00;;;27.10
44429;BMP180;30134;47.866;-4.222;2022-07-03T15:03:05;102315.00;;;26.80
44429;BMP180;30134;47.866;-4.222;2022-07-03T15:05:50;102318.00;;;27.10
44429;BMP180;30134;47.866;-4.222;2022-07-03T15:11:14;102315.00;;;26.90
44429;BMP180;30134;47.866;-4.222;2022-07-03T15:14:04;102318.00;;;26.60
44429;BMP180;30134;47.866;-4.222;2022-07-03T15:16:32;102317.00;;;27.00
44429;BMP180;30134;47.866;-4.222;2022-07-03T15:19:02;102308.00;;;26.60
44429;BMP180;30134;47.866;-4.222;2022-07-03T15:21:31;102313.00;;;27.10
44429;BMP180;30134;47.866;-4.222;2022-07-03T15:24:01;102310.00;;;26.70
44429;BMP180;30134;47.866;-4.222;2022-07-03T15:26:31;102311.00;;;26.80
44429;BMP180;30134;47.866;-4.222;2022-07-03T15:29:00;102309.00;;;26.60
44429;BMP180;30134;47.866;-4.222;2022-07-03T15:31:28;102315.00;;;26.80
44429;BMP180;30134;47.866;-4.222;2022-07-03T15:33:55;102309.00;;;26.60
44429;BMP180;30134;47.866;-4.222;2022-07-03T15:36:27;102310.00;;;26.80
44429;BMP180;30134;47.866;-4.222;2022-07-03T15:39:04;102295.00;;;26.80
44429;BMP180;30134;47.866;-4.222;2022-07-03T15:42:01;102301.00;;;26.80
44429;BMP180;30134;47.866;-4.222;2022-07-03T15:47:57;102303.00;;;26.60